Terminal Aerodrome Forecast
Issued by NWS

Home | Current Version | Previous Version | Text Only | Print | Product List | Glossary On
Versions: 1 2 3 4 5 6 7 8 9 10 11 12 13
000
FTUS43 KMQT 220532
TAFIWD
TAF
KIWD 220532Z 2206/2306 18012G20KT 6SM -SHRA SCT035 OVC050
      WS010/19035KT
     FM220700 19010KT 6SM -SHRA OVC025
     FM220800 22009KT P6SM -SHRA OVC015
     FM221000 23008KT P6SM VCSH OVC040
     FM221200 24009KT P6SM OVC060
     FM221700 25010KT P6SM BKN110
     FM230200 21006KT P6SM FEW250=

USA.gov is the U.S. government's official web portal to all federal, state and local government web resources and services.